Terminal Aerodrome Forecast
Issued by NWS Milwaukee/Sullivan, WI

Home | Current Version | Previous Version | Text Only | Print | Product List | Glossary On
Versions: 1 2 3 4 5 6 7 8 9 10 11 12 13 14 15 16 17 18 19 20 21 22 23 24 25 26
000
FTUS43 KMKX 242341
TAFMKE
TAF
KMKE 242341Z 2500/2606 21008KT P6SM BKN070
      TEMPO 2500/2501 -SHRA
     FM250600 VRB03KT 3SM BR SCT200
     FM251100 00000KT 1SM BR BKN020
     FM251500 13006KT P6SM SCT020 BKN100
     FM252100 11008KT 5SM SHRA BR VCTS BKN060CB=

USA.gov is the U.S. government's official web portal to all federal, state and local government web resources and services.